Poseidon — SVIU — position and weather

sailwx.info

Track history (hours):
 
Tides and Currents Weather Stations Pressure Air Temp Water Temp Dewpoint Dewpoint Depression Visibility Wind Speed Wind Dir Waves Ship Positions

Poseidon

Last reported at 2017-Dec-18 16:30 UTC. Time now 2017-Dec-18 16:55 UTC.
Position N 48°31' W 124°56'.

Length 224 m; draft 12.1 m.

Type: Ship. MMSI: 239896000.

Date/timePositionNaut miles runAvg speedWind from/ knotsBaromVisibWave heightAir tempDewpointWater temp
2017-Dec-18 16:30N 48°31' W 124°56'510.1
2017-Dec-18 16:00N 48°31' W 124°48'510.0
2017-Dec-18 15:30N 48°30' W 124°41'510.4
2017-Dec-18 15:00N 48°28' W 124°33'510.5
2017-Dec-18 14:30N 48°26' W 124°26'510.2
2017-Dec-18 14:00N 48°24' W 124°19'510.0
2017-Dec-18 13:30N 48°22' W 124°12'510.0
2017-Dec-18 13:00N 48°20' W 124°05'5 9.8
2017-Dec-18 12:30N 48°18' W 123°58'5 9.1
2017-Dec-18 12:00N 48°17' W 123°52'5 8.9
2017-Dec-18 11:29N 48°16' W 123°45'4 8.5
2017-Dec-18 11:00N 48°16' W 123°39'4 8.1
2017-Dec-18 10:30N 48°15' W 123°33'4 8.3
2017-Dec-18 10:00N 48°14' W 123°27'510.1
2017-Dec-18 09:30N 48°10' W 123°23'4 6.8
2017-Dec-18 08:59N 48°09' W 123°18'510.3
2017-Dec-18 08:30N 48°11' W 123°11'510.4
2017-Dec-18 08:00N 48°13' W 123°04'612.1
2017-Dec-18 07:29N 48°12' W 122°54'611.9
2017-Dec-18 07:00N 48°11' W 122°46'612.1
2017-Dec-18 06:30N 48°07' W 122°39'713.1
2017-Dec-18 05:58N 47°60' W 122°36'612.2
2017-Dec-18 05:30N 47°56' W 122°30'612.3
2017-Dec-18 05:00N 47°50' W 122°27'612.6
2017-Dec-18 04:31N 47°44' W 122°26'612.9
2017-Dec-18 04:00N 47°37' W 122°27'612.8
2017-Dec-18 03:31N 47°31' W 122°25'612.1
2017-Dec-18 03:00N 47°25' W 122°23'5 9.7
2017-Dec-18 02:30N 47°21' W 122°25'4 8.3
2017-Dec-18 02:00N 47°17' W 122°26'1 1.2
2017-Dec-18 01:26N 47°16' W 122°27'0 0.0
2017-Dec-18 00:59N 47°16' W 122°27'0 0.0
2017-Dec-18 00:29N 47°16' W 122°27'0 0.0
2017-Dec-17 23:59N 47°16' W 122°27'0 0.0
2017-Dec-17 23:29N 47°16' W 122°27'0 0.0
2017-Dec-17 22:59N 47°16' W 122°27'0 0.0
2017-Dec-17 22:26N 47°16' W 122°27'0 0.0
2017-Dec-17 21:56N 47°16' W 122°27'0 0.0
2017-Dec-17 21:29N 47°16' W 122°27'0 0.0
2017-Dec-17 20:59N 47°16' W 122°27'0 0.0
2017-Dec-17 20:26N 47°16' W 122°27'0 0.1
2017-Dec-17 19:59N 47°16' W 122°27'0 0.1
2017-Dec-17 19:29N 47°16' W 122°27'0 0.0
2017-Dec-17 18:47N 47°16' W 122°27'0 0.0
2017-Dec-17 18:23N 47°16' W 122°27'0 0.1
2017-Dec-17 17:59N 47°16' W 122°27'0 0.1
2017-Dec-17 17:29N 47°16' W 122°27'0 0.0
2017-Dec-17 16:59N 47°16' W 122°27'0 0.0
2017-Dec-17 16:29N 47°16' W 122°27'0 0.0
2017-Dec-17 15:59N 47°16' W 122°27'0 0.0
2017-Dec-17 15:29N 47°16' W 122°27'0 0.0
2017-Dec-17 14:56N 47°16' W 122°27'0 0.0
2017-Dec-17 14:29N 47°16' W 122°27'0 0.0
2017-Dec-17 13:59N 47°16' W 122°27'0 0.0
2017-Dec-17 13:29N 47°16' W 122°27'0 0.0
2017-Dec-17 12:59N 47°16' W 122°27'0 0.0
2017-Dec-17 12:29N 47°16' W 122°27'0 0.0
2017-Dec-17 11:59N 47°16' W 122°27'0 0.0
2017-Dec-17 11:29N 47°16' W 122°27'0 0.0
2017-Dec-17 10:59N 47°16' W 122°27'0 0.0
2017-Dec-17 10:29N 47°16' W 122°27'0 0.0
2017-Dec-17 09:59N 47°16' W 122°27'0 0.1
2017-Dec-17 09:23N 47°16' W 122°27'0 0.0
2017-Dec-17 08:59N 47°16' W 122°27'0 0.0
2017-Dec-17 08:26N 47°16' W 122°27'0 0.0
2017-Dec-17 07:59N 47°16' W 122°27'0 0.0
2017-Dec-17 07:26N 47°16' W 122°27'0 0.0
2017-Dec-17 06:59N 47°16' W 122°27'0 0.0
2017-Dec-17 06:26N 47°16' W 122°27'0 0.0
2017-Dec-17 05:59N 47°16' W 122°27'0 0.0
2017-Dec-17 05:29N 47°16' W 122°27'0 0.0
2017-Dec-17 04:59N 47°16' W 122°27'0 0.0
2017-Dec-17 04:29N 47°16' W 122°27'0 0.0
2017-Dec-17 03:56N 47°16' W 122°27'0 0.0
2017-Dec-17 03:29N 47°16' W 122°27'0 0.0
2017-Dec-17 01:35N 47°16' W 122°27'0 0.1
2017-Dec-17 01:29N 47°16' W 122°27'0 0.0
2017-Dec-16 23:56N 47°16' W 122°27'0 0.0
2017-Dec-16 23:26N 47°16' W 122°27'0 0.0
2017-Dec-16 20:56N 47°16' W 122°27'0 0.0
2017-Dec-16 20:23N 47°16' W 122°27'0 0.0
2017-Dec-16 19:56N 47°16' W 122°27'0 0.0
2017-Dec-16 19:26N 47°16' W 122°27'0 0.1
2017-Dec-16 18:56N 47°16' W 122°27'0 0.1
2017-Dec-16 18:29N 47°16' W 122°27'0 0.1
2017-Dec-16 17:56N 47°16' W 122°27'0 0.1
2017-Dec-16 17:26N 47°16' W 122°27'0 0.1
2017-Dec-16 16:56N 47°16' W 122°27'0 0.0
2017-Dec-16 16:26N 47°16' W 122°27'0 0.0
2017-Dec-16 15:53N 47°16' W 122°27'0 0.0
2017-Dec-16 15:26N 47°16' W 122°27'0 0.0
2017-Dec-16 14:56N 47°16' W 122°27'0 0.0
2017-Dec-16 14:29N 47°16' W 122°27'0 0.0
2017-Dec-16 13:59N 47°16' W 122°27'0 0.0
2017-Dec-16 13:26N 47°16' W 122°27'0 0.0
2017-Dec-16 12:59N 47°16' W 122°27'0 0.0
2017-Dec-16 12:29N 47°16' W 122°27'0 0.0
2017-Dec-16 11:59N 47°16' W 122°27'0 0.1
2017-Dec-16 11:26N 47°16' W 122°27'0 0.0
2017-Dec-16 10:59N 47°16' W 122°27'0 0.1
2017-Dec-16 10:29N 47°16' W 122°27'0 0.0
2017-Dec-16 09:59N 47°16' W 122°27'0 0.0
2017-Dec-16 09:29N 47°16' W 122°27'0 0.0
2017-Dec-16 08:59N 47°16' W 122°27'0 0.1
2017-Dec-16 08:29N 47°16' W 122°27'0 0.0
2017-Dec-16 07:59N 47°16' W 122°27'0 0.0
2017-Dec-16 07:26N 47°16' W 122°27'0 0.0
2017-Dec-16 05:20N 47°16' W 122°27'0 0.0
2017-Dec-16 04:59N 47°16' W 122°27'0 0.0
2017-Dec-16 04:26N 47°16' W 122°27'0 0.0
2017-Dec-16 03:56N 47°16' W 122°27'0 0.0
2017-Dec-16 03:29N 47°16' W 122°27'0 0.0
2017-Dec-16 02:56N 47°16' W 122°27'0 0.0
2017-Dec-16 02:29N 47°16' W 122°27'0 0.0
2017-Dec-16 01:59N 47°16' W 122°27'0 0.0
2017-Dec-16 01:29N 47°16' W 122°27'0 0.0
2017-Dec-16 00:59N 47°16' W 122°27'0 0.0
2017-Dec-16 00:29N 47°16' W 122°27'0 0.0
2017-Dec-15 23:59N 47°16' W 122°27'0 0.0
2017-Dec-15 22:41N 47°16' W 122°27'0 0.0
2017-Dec-15 22:20N 47°16' W 122°27'0 0.0
2017-Dec-15 21:59N 47°16' W 122°27'0 0.0
2017-Dec-15 21:29N 47°16' W 122°27'0 0.0
2017-Dec-15 20:59N 47°16' W 122°27'0 0.0
2017-Dec-15 20:29N 47°16' W 122°27'0 0.0
2017-Dec-15 19:59N 47°16' W 122°27'0 0.0
2017-Dec-15 19:29N 47°16' W 122°27'0 0.0
2017-Dec-15 18:59N 47°16' W 122°27'0 0.0
2017-Dec-15 18:29N 47°16' W 122°27'0 0.0
2017-Dec-15 17:59N 47°16' W 122°27'0 0.0
2017-Dec-15 17:29N 47°16' W 122°27'0 0.0
2017-Dec-15 16:59N 47°16' W 122°27'0 0.0
2017-Dec-15 16:26N 47°16' W 122°27'0 0.0
2017-Dec-15 15:41N 47°16' W 122°27'0 0.0
2017-Dec-15 15:17N 47°16' W 122°27'0 0.0
2017-Dec-15 14:47N 47°16' W 122°27'0 0.0
2017-Dec-15 14:23N 47°16' W 122°27'0 0.0
2017-Dec-15 12:35N 47°16' W 122°27'0 0.0
2017-Dec-15 12:23N 47°16' W 122°27'0 0.0
2017-Dec-15 11:23N 47°16' W 122°27'0 0.0
2017-Dec-15 10:41N 47°16' W 122°27'0 0.0
2017-Dec-15 10:29N 47°16' W 122°27'0 0.0
2017-Dec-15 09:59N 47°16' W 122°27'0 0.0
2017-Dec-15 09:29N 47°16' W 122°27'0 0.0
2017-Dec-15 08:56N 47°16' W 122°27'0 0.0
2017-Dec-15 08:29N 47°16' W 122°27'0 0.0
2017-Dec-15 07:59N 47°16' W 122°27'0 0.0
2017-Dec-15 07:26N 47°16' W 122°27'0 0.0
2017-Dec-15 06:59N 47°16' W 122°27'0 0.0
2017-Dec-15 06:26N 47°16' W 122°27'0 0.0
2017-Dec-15 05:11N 47°16' W 122°27'0 0.0
2017-Dec-15 04:47N 47°16' W 122°27'0 0.0
2017-Dec-15 04:29N 47°16' W 122°27'0 0.0
2017-Dec-15 02:29N 47°16' W 122°27'0 0.0
2017-Dec-15 00:59N 47°16' W 122°27'4 0.5
2017-Dec-14 18:29N 47°19' W 122°30'0 0.1
2017-Dec-14 17:59N 47°19' W 122°30'0 0.1
2017-Dec-14 17:29N 47°18' W 122°30'0 0.1
2017-Dec-14 16:59N 47°19' W 122°30'0 0.3
2017-Dec-14 16:29N 47°19' W 122°30'0 0.1
2017-Dec-14 15:59N 47°18' W 122°30'0 0.1
2017-Dec-14 14:59N 47°19' W 122°30'0 0.1
2017-Dec-14 14:29N 47°19' W 122°30'0 0.0
2017-Dec-14 13:59N 47°19' W 122°30'0 0.0
2017-Dec-14 13:29N 47°19' W 122°30'0 0.0
2017-Dec-14 12:59N 47°19' W 122°30'0 0.1
2017-Dec-14 12:29N 47°19' W 122°30'0 0.0
2017-Dec-14 11:59N 47°19' W 122°30'0 0.0
2017-Dec-14 11:29N 47°19' W 122°30'0 0.1
2017-Dec-14 10:59N 47°19' W 122°30'0 0.1
2017-Dec-14 10:29N 47°18' W 122°30'0 0.0
2017-Dec-14 09:59N 47°19' W 122°30'0 0.0
2017-Dec-14 09:29N 47°19' W 122°30'0 0.0
2017-Dec-14 08:59N 47°19' W 122°30'0 0.1
2017-Dec-14 08:29N 47°18' W 122°30'0 0.0
2017-Dec-14 07:59N 47°18' W 122°30'0 0.1
2017-Dec-14 07:29N 47°18' W 122°30'0 0.0
2017-Dec-14 06:59N 47°18' W 122°30'0 0.1
2017-Dec-14 06:29N 47°18' W 122°30'0 0.0
2017-Dec-14 05:59N 47°18' W 122°30'0 0.1
2017-Dec-14 05:29N 47°18' W 122°30'0 0.0
2017-Dec-14 04:59N 47°18' W 122°30'0 0.2
2017-Dec-14 04:29N 47°18' W 122°30'0 0.1
2017-Dec-14 03:59N 47°18' W 122°30'0 0.1
2017-Dec-14 03:29N 47°18' W 122°30'0 0.1
2017-Dec-14 02:59N 47°18' W 122°30'0 0.4
2017-Dec-14 02:29N 47°18' W 122°30'0 0.1
2017-Dec-14 01:59N 47°18' W 122°30'0 0.1
2017-Dec-14 01:29N 47°18' W 122°30'0 0.1
2017-Dec-14 00:59N 47°18' W 122°30'0 0.0
2017-Dec-14 00:29N 47°18' W 122°30'0 0.0
2017-Dec-13 23:59N 47°18' W 122°30'0 0.1
2017-Dec-13 23:29N 47°18' W 122°30'0 0.0
2017-Dec-13 22:59N 47°18' W 122°30'0 0.0
2017-Dec-13 22:29N 47°19' W 122°30'0 0.0
2017-Dec-13 21:59N 47°19' W 122°30'0 0.0
2017-Dec-13 21:29N 47°18' W 122°30'0 0.1
2017-Dec-13 20:59N 47°18' W 122°30'0 0.0
2017-Dec-13 20:29N 47°18' W 122°30'0 0.0
2017-Dec-13 19:59N 47°18' W 122°30'0 0.1
2017-Dec-13 19:29N 47°18' W 122°30'0 0.1
2017-Dec-13 18:59N 47°18' W 122°30'0 0.0
2017-Dec-13 18:29N 47°19' W 122°30'0 0.1
2017-Dec-13 17:59N 47°19' W 122°30'0 0.0
2017-Dec-13 17:29N 47°19' W 122°30'0 0.0
2017-Dec-13 16:59N 47°19' W 122°30'0 0.0
2017-Dec-13 16:29N 47°18' W 122°30'0 0.0
2017-Dec-13 15:59N 47°19' W 122°30'0 0.1
2017-Dec-13 15:29N 47°18' W 122°30'0 0.0
2017-Dec-13 14:56N 47°18' W 122°30'0 0.2
2017-Dec-13 14:29N 47°18' W 122°30'0 0.0
2017-Dec-13 13:59N 47°19' W 122°30'0 0.0
2017-Dec-13 13:29N 47°19' W 122°30'0 0.0
2017-Dec-13 12:59N 47°19' W 122°30'0 0.1
2017-Dec-13 12:29N 47°19' W 122°30'0 0.1
2017-Dec-13 11:59N 47°19' W 122°30'0 0.1
2017-Dec-13 11:29N 47°19' W 122°30'0 0.1
2017-Dec-13 10:59N 47°19' W 122°30'0 0.1
2017-Dec-13 10:29N 47°19' W 122°30'0 0.1
2017-Dec-13 09:59N 47°19' W 122°30'0 0.0
2017-Dec-13 09:29N 47°19' W 122°30'0 0.1
2017-Dec-13 08:59N 47°18' W 122°30'0 0.0
2017-Dec-13 08:29N 47°18' W 122°30'0 0.0
2017-Dec-13 07:59N 47°18' W 122°30'0 0.0
2017-Dec-13 07:29N 47°18' W 122°30'0 0.2
2017-Dec-13 06:59N 47°19' W 122°30'0 0.1
2017-Dec-13 06:29N 47°18' W 122°30'0 0.0
2017-Dec-13 05:59N 47°18' W 122°30'0 0.0
2017-Dec-13 05:29N 47°18' W 122°30'0 0.2
2017-Dec-13 04:59N 47°18' W 122°30'0 0.2
2017-Dec-13 04:26N 47°18' W 122°30'0 0.0
2017-Dec-13 03:59N 47°18' W 122°30'0 0.1
2017-Dec-13 03:29N 47°18' W 122°30'0 0.1
2017-Dec-13 02:59N 47°18' W 122°30'0 0.0
2017-Dec-13 02:29N 47°18' W 122°30'0 0.4
2017-Dec-13 01:59N 47°18' W 122°30'0 0.0
2017-Dec-13 01:29N 47°18' W 122°30'0 0.2
2017-Dec-13 00:59N 47°19' W 122°30'0 0.1
2017-Dec-13 00:29N 47°19' W 122°30'0 0.0
2017-Dec-12 23:59N 47°19' W 122°30'0 0.1
2017-Dec-12 23:29N 47°19' W 122°30'0 0.1
2017-Dec-12 22:59N 47°19' W 122°30'0 0.1
2017-Dec-12 22:29N 47°19' W 122°30'0 0.2
2017-Dec-12 21:59N 47°19' W 122°30'0 0.0
2017-Dec-12 21:29N 47°19' W 122°30'0 0.0
2017-Dec-12 20:59N 47°19' W 122°30'0 0.1
2017-Dec-12 20:29N 47°19' W 122°30'0 0.0
2017-Dec-12 19:59N 47°19' W 122°30'0 0.0
2017-Dec-12 19:29N 47°19' W 122°30'0 0.1
2017-Dec-12 18:59N 47°18' W 122°30'0 0.1
2017-Dec-12 18:29N 47°19' W 122°30'1 1.1
2017-Dec-12 18:00N 47°19' W 122°30'4 8.5
2017-Dec-12 17:30N 47°21' W 122°25'510.3
2017-Dec-12 17:00N 47°27' W 122°24'713.6
2017-Dec-12 16:30N 47°33' W 122°27'713.4
2017-Dec-12 16:00N 47°40' W 122°28'713.2
2017-Dec-12 15:30N 47°46' W 122°27'713.5
2017-Dec-12 15:00N 47°53' W 122°29'612.3
2017-Dec-12 14:30N 47°58' W 122°35'1012.1
2017-Dec-12 13:42N 48°07' W 122°40'412.0
2017-Dec-12 13:24N 48°09' W 122°44'511.8
2017-Dec-12 13:00N 48°11' W 122°51'612.0
2017-Dec-12 12:29N 48°12' W 122°60'612.4
2017-Dec-12 12:00N 48°12' W 123°09'612.1
2017-Dec-12 11:30N 48°11' W 123°18'510.1
2017-Dec-12 11:00N 48°10' W 123°25'4 7.8
2017-Dec-12 10:30N 48°12' W 123°30'4 8.9
2017-Dec-12 10:00N 48°13' W 123°37'712.5
2017-Dec-12 09:29N 48°13' W 123°47'613.2
2017-Dec-12 09:00N 48°14' W 123°56'613.0
2017-Dec-12 08:30N 48°16' W 124°05'612.8
2017-Dec-12 08:00N 48°19' W 124°13'713.5
2017-Dec-12 07:30N 48°22' W 124°23'713.2
2017-Dec-12 07:00N 48°25' W 124°32'713.3
2017-Dec-12 06:30N 48°28' W 124°41'612.3
2017-Dec-12 06:00N 48°28' W 124°50'612.3
2017-Dec-12 05:30N 48°28' W 124°59'612.5
2017-Dec-12 05:00N 48°29' W 125°09'612.4
2017-Dec-12 04:30N 48°29' W 125°18'612.2
2017-Dec-12 04:00N 48°29' W 125°27'611.7
2017-Dec-12 03:30N 48°29' W 125°36'611.5
2017-Dec-12 03:00N 48°29' W 125°45'611.6
2017-Dec-12 02:30N 48°29' W 125°53'611.6
2017-Dec-12 01:58N 48°30' W 126°03'611.6
2017-Dec-12 01:29N 48°30' W 126°11'5 9.3
2017-Dec-12 00:55N 48°31' W 126°19'5 8.0
2017-Dec-12 00:21N 48°30' W 126°26'9411.3
2017-Dec-11 16:01N 48°29' W 128°49'111.2
2017-Dec-11 15:57N 48°29' W 128°50'511.2
2017-Dec-11 15:30N 48°29' W 128°57'611.2
2017-Dec-11 15:00N 48°29' W 129°06'611.2
2017-Dec-11 14:30N 48°29' W 129°14'711.1
2017-Dec-11 13:52N 48°29' W 129°25'411.2
2017-Dec-11 13:30N 48°29' W 129°31'611.4
2017-Dec-11 13:00N 48°29' W 129°39'611.5
2017-Dec-11 12:30N 48°29' W 129°48'611.6
2017-Dec-11 12:00N 48°29' W 129°57'611.6
2017-Dec-11 11:30N 48°30' W 130°06'611.2
2017-Dec-11 11:00N 48°30' W 130°14'611.1
2017-Dec-11 10:30N 48°30' W 130°23'611.1
2017-Dec-11 10:00N 48°29' W 130°31'611.2
2017-Dec-11 09:30N 48°29' W 130°39'611.1
2017-Dec-11 09:00N 48°29' W 130°48'511.0
2017-Dec-11 08:30N 48°29' W 130°56'510.9
2017-Dec-11 08:01N 48°29' W 131°04'510.7
2017-Dec-11 07:30N 48°29' W 131°12'510.6
2017-Dec-11 07:00N 48°29' W 131°20'510.6
2017-Dec-11 06:30N 48°29' W 131°28'610.5
2017-Dec-11 05:59N 48°29' W 131°37'510.3
2017-Dec-11 05:30N 48°30' W 131°44'  
Track history (hours):
 
Tides and Currents Weather Stations Pressure Air Temp Water Temp Dewpoint Dewpoint Depression Visibility Wind Speed Wind Dir Waves Ship Positions

Poseidon

Last reported at 2017-Dec-18 16:30 UTC. Time now 2017-Dec-18 16:55 UTC.
Position N 48°31' W 124°56'.

Length 224 m; draft 12.1 m.

Type: Ship. MMSI: 239896000.

Date/timePositionNaut miles runAvg speedWind from/ knotsBaromVisibWave heightAir tempDewpointWater temp
2017-Dec-18 16:30N 48°31' W 124°56'510.1
2017-Dec-18 16:00N 48°31' W 124°48'510.0
2017-Dec-18 15:30N 48°30' W 124°41'510.4
2017-Dec-18 15:00N 48°28' W 124°33'510.5
2017-Dec-18 14:30N 48°26' W 124°26'510.2
2017-Dec-18 14:00N 48°24' W 124°19'510.0
2017-Dec-18 13:30N 48°22' W 124°12'510.0
2017-Dec-18 13:00N 48°20' W 124°05'5 9.8
2017-Dec-18 12:30N 48°18' W 123°58'5 9.1
2017-Dec-18 12:00N 48°17' W 123°52'5 8.9
2017-Dec-18 11:29N 48°16' W 123°45'4 8.5
2017-Dec-18 11:00N 48°16' W 123°39'4 8.1
2017-Dec-18 10:30N 48°15' W 123°33'4 8.3
2017-Dec-18 10:00N 48°14' W 123°27'510.1
2017-Dec-18 09:30N 48°10' W 123°23'4 6.8
2017-Dec-18 08:59N 48°09' W 123°18'510.3
2017-Dec-18 08:30N 48°11' W 123°11'510.4
2017-Dec-18 08:00N 48°13' W 123°04'612.1
2017-Dec-18 07:29N 48°12' W 122°54'611.9
2017-Dec-18 07:00N 48°11' W 122°46'612.1
2017-Dec-18 06:30N 48°07' W 122°39'713.1
2017-Dec-18 05:58N 47°60' W 122°36'612.2
2017-Dec-18 05:30N 47°56' W 122°30'612.3
2017-Dec-18 05:00N 47°50' W 122°27'612.6
2017-Dec-18 04:31N 47°44' W 122°26'612.9
2017-Dec-18 04:00N 47°37' W 122°27'612.8
2017-Dec-18 03:31N 47°31' W 122°25'612.1
2017-Dec-18 03:00N 47°25' W 122°23'5 9.7
2017-Dec-18 02:30N 47°21' W 122°25'4 8.3
2017-Dec-18 02:00N 47°17' W 122°26'1 1.2
2017-Dec-18 01:26N 47°16' W 122°27'0 0.0
2017-Dec-18 00:59N 47°16' W 122°27'0 0.0
2017-Dec-18 00:29N 47°16' W 122°27'0 0.0
2017-Dec-17 23:59N 47°16' W 122°27'0 0.0
2017-Dec-17 23:29N 47°16' W 122°27'0 0.0
2017-Dec-17 22:59N 47°16' W 122°27'0 0.0
2017-Dec-17 22:26N 47°16' W 122°27'0 0.0
2017-Dec-17 21:56N 47°16' W 122°27'0 0.0
2017-Dec-17 21:29N 47°16' W 122°27'0 0.0
2017-Dec-17 20:59N 47°16' W 122°27'0 0.0
2017-Dec-17 20:26N 47°16' W 122°27'0 0.1
2017-Dec-17 19:59N 47°16' W 122°27'0 0.1
2017-Dec-17 19:29N 47°16' W 122°27'0 0.0
2017-Dec-17 18:47N 47°16' W 122°27'0 0.0
2017-Dec-17 18:23N 47°16' W 122°27'0 0.1
2017-Dec-17 17:59N 47°16' W 122°27'0 0.1
2017-Dec-17 17:29N 47°16' W 122°27'0 0.0
2017-Dec-17 16:59N 47°16' W 122°27'0 0.0
2017-Dec-17 16:29N 47°16' W 122°27'0 0.0
2017-Dec-17 15:59N 47°16' W 122°27'0 0.0
2017-Dec-17 15:29N 47°16' W 122°27'0 0.0
2017-Dec-17 14:56N 47°16' W 122°27'0 0.0
2017-Dec-17 14:29N 47°16' W 122°27'0 0.0
2017-Dec-17 13:59N 47°16' W 122°27'0 0.0
2017-Dec-17 13:29N 47°16' W 122°27'0 0.0
2017-Dec-17 12:59N 47°16' W 122°27'0 0.0
2017-Dec-17 12:29N 47°16' W 122°27'0 0.0
2017-Dec-17 11:59N 47°16' W 122°27'0 0.0
2017-Dec-17 11:29N 47°16' W 122°27'0 0.0
2017-Dec-17 10:59N 47°16' W 122°27'0 0.0
2017-Dec-17 10:29N 47°16' W 122°27'0 0.0
2017-Dec-17 09:59N 47°16' W 122°27'0 0.1
2017-Dec-17 09:23N 47°16' W 122°27'0 0.0
2017-Dec-17 08:59N 47°16' W 122°27'0 0.0
2017-Dec-17 08:26N 47°16' W 122°27'0 0.0
2017-Dec-17 07:59N 47°16' W 122°27'0 0.0
2017-Dec-17 07:26N 47°16' W 122°27'0 0.0
2017-Dec-17 06:59N 47°16' W 122°27'0 0.0
2017-Dec-17 06:26N 47°16' W 122°27'0 0.0
2017-Dec-17 05:59N 47°16' W 122°27'0 0.0
2017-Dec-17 05:29N 47°16' W 122°27'0 0.0
2017-Dec-17 04:59N 47°16' W 122°27'0 0.0
2017-Dec-17 04:29N 47°16' W 122°27'0 0.0
2017-Dec-17 03:56N 47°16' W 122°27'0 0.0
2017-Dec-17 03:29N 47°16' W 122°27'0 0.0
2017-Dec-17 01:35N 47°16' W 122°27'0 0.1
2017-Dec-17 01:29N 47°16' W 122°27'0 0.0
2017-Dec-16 23:56N 47°16' W 122°27'0 0.0
2017-Dec-16 23:26N 47°16' W 122°27'0 0.0
2017-Dec-16 20:56N 47°16' W 122°27'0 0.0
2017-Dec-16 20:23N 47°16' W 122°27'0 0.0
2017-Dec-16 19:56N 47°16' W 122°27'0 0.0
2017-Dec-16 19:26N 47°16' W 122°27'0 0.1
2017-Dec-16 18:56N 47°16' W 122°27'0 0.1
2017-Dec-16 18:29N 47°16' W 122°27'0 0.1
2017-Dec-16 17:56N 47°16' W 122°27'0 0.1
2017-Dec-16 17:26N 47°16' W 122°27'0 0.1
2017-Dec-16 16:56N 47°16' W 122°27'0 0.0
2017-Dec-16 16:26N 47°16' W 122°27'0 0.0
2017-Dec-16 15:53N 47°16' W 122°27'0 0.0
2017-Dec-16 15:26N 47°16' W 122°27'0 0.0
2017-Dec-16 14:56N 47°16' W 122°27'0 0.0
2017-Dec-16 14:29N 47°16' W 122°27'0 0.0
2017-Dec-16 13:59N 47°16' W 122°27'0 0.0
2017-Dec-16 13:26N 47°16' W 122°27'0 0.0
2017-Dec-16 12:59N 47°16' W 122°27'0 0.0
2017-Dec-16 12:29N 47°16' W 122°27'0 0.0
2017-Dec-16 11:59N 47°16' W 122°27'0 0.1
2017-Dec-16 11:26N 47°16' W 122°27'0 0.0
2017-Dec-16 10:59N 47°16' W 122°27'0 0.1
2017-Dec-16 10:29N 47°16' W 122°27'0 0.0
2017-Dec-16 09:59N 47°16' W 122°27'0 0.0
2017-Dec-16 09:29N 47°16' W 122°27'0 0.0
2017-Dec-16 08:59N 47°16' W 122°27'0 0.1
2017-Dec-16 08:29N 47°16' W 122°27'0 0.0
2017-Dec-16 07:59N 47°16' W 122°27'0 0.0
2017-Dec-16 07:26N 47°16' W 122°27'0 0.0
2017-Dec-16 05:20N 47°16' W 122°27'0 0.0
2017-Dec-16 04:59N 47°16' W 122°27'0 0.0
2017-Dec-16 04:26N 47°16' W 122°27'0 0.0
2017-Dec-16 03:56N 47°16' W 122°27'0 0.0
2017-Dec-16 03:29N 47°16' W 122°27'0 0.0
2017-Dec-16 02:56N 47°16' W 122°27'0 0.0
2017-Dec-16 02:29N 47°16' W 122°27'0 0.0
2017-Dec-16 01:59N 47°16' W 122°27'0 0.0
2017-Dec-16 01:29N 47°16' W 122°27'0 0.0
2017-Dec-16 00:59N 47°16' W 122°27'0 0.0
2017-Dec-16 00:29N 47°16' W 122°27'0 0.0
2017-Dec-15 23:59N 47°16' W 122°27'0 0.0
2017-Dec-15 22:41N 47°16' W 122°27'0 0.0
2017-Dec-15 22:20N 47°16' W 122°27'0 0.0
2017-Dec-15 21:59N 47°16' W 122°27'0 0.0
2017-Dec-15 21:29N 47°16' W 122°27'0 0.0
2017-Dec-15 20:59N 47°16' W 122°27'0 0.0
2017-Dec-15 20:29N 47°16' W 122°27'0 0.0
2017-Dec-15 19:59N 47°16' W 122°27'0 0.0
2017-Dec-15 19:29N 47°16' W 122°27'0 0.0
2017-Dec-15 18:59N 47°16' W 122°27'0 0.0
2017-Dec-15 18:29N 47°16' W 122°27'0 0.0
2017-Dec-15 17:59N 47°16' W 122°27'0 0.0
2017-Dec-15 17:29N 47°16' W 122°27'0 0.0
2017-Dec-15 16:59N 47°16' W 122°27'0 0.0
2017-Dec-15 16:26N 47°16' W 122°27'0 0.0
2017-Dec-15 15:41N 47°16' W 122°27'0 0.0
2017-Dec-15 15:17N 47°16' W 122°27'0 0.0
2017-Dec-15 14:47N 47°16' W 122°27'0 0.0
2017-Dec-15 14:23N 47°16' W 122°27'0 0.0
2017-Dec-15 12:35N 47°16' W 122°27'0 0.0
2017-Dec-15 12:23N 47°16' W 122°27'0 0.0
2017-Dec-15 11:23N 47°16' W 122°27'0 0.0
2017-Dec-15 10:41N 47°16' W 122°27'0 0.0
2017-Dec-15 10:29N 47°16' W 122°27'0 0.0
2017-Dec-15 09:59N 47°16' W 122°27'0 0.0
2017-Dec-15 09:29N 47°16' W 122°27'0 0.0
2017-Dec-15 08:56N 47°16' W 122°27'0 0.0
2017-Dec-15 08:29N 47°16' W 122°27'0 0.0
2017-Dec-15 07:59N 47°16' W 122°27'0 0.0
2017-Dec-15 07:26N 47°16' W 122°27'0 0.0
2017-Dec-15 06:59N 47°16' W 122°27'0 0.0
2017-Dec-15 06:26N 47°16' W 122°27'0 0.0
2017-Dec-15 05:11N 47°16' W 122°27'0 0.0
2017-Dec-15 04:47N 47°16' W 122°27'0 0.0
2017-Dec-15 04:29N 47°16' W 122°27'0 0.0
2017-Dec-15 02:29N 47°16' W 122°27'0 0.0
2017-Dec-15 00:59N 47°16' W 122°27'4 0.5
2017-Dec-14 18:29N 47°19' W 122°30'0 0.1
2017-Dec-14 17:59N 47°19' W 122°30'0 0.1
2017-Dec-14 17:29N 47°18' W 122°30'0 0.1
2017-Dec-14 16:59N 47°19' W 122°30'0 0.3
2017-Dec-14 16:29N 47°19' W 122°30'0 0.1
2017-Dec-14 15:59N 47°18' W 122°30'0 0.1
2017-Dec-14 14:59N 47°19' W 122°30'0 0.1
2017-Dec-14 14:29N 47°19' W 122°30'0 0.0
2017-Dec-14 13:59N 47°19' W 122°30'0 0.0
2017-Dec-14 13:29N 47°19' W 122°30'0 0.0
2017-Dec-14 12:59N 47°19' W 122°30'0 0.1
2017-Dec-14 12:29N 47°19' W 122°30'0 0.0
2017-Dec-14 11:59N 47°19' W 122°30'0 0.0
2017-Dec-14 11:29N 47°19' W 122°30'0 0.1
2017-Dec-14 10:59N 47°19' W 122°30'0 0.1
2017-Dec-14 10:29N 47°18' W 122°30'0 0.0
2017-Dec-14 09:59N 47°19' W 122°30'0 0.0
2017-Dec-14 09:29N 47°19' W 122°30'0 0.0
2017-Dec-14 08:59N 47°19' W 122°30'0 0.1
2017-Dec-14 08:29N 47°18' W 122°30'0 0.0
2017-Dec-14 07:59N 47°18' W 122°30'0 0.1
2017-Dec-14 07:29N 47°18' W 122°30'0 0.0
2017-Dec-14 06:59N 47°18' W 122°30'0 0.1
2017-Dec-14 06:29N 47°18' W 122°30'0 0.0
2017-Dec-14 05:59N 47°18' W 122°30'0 0.1
2017-Dec-14 05:29N 47°18' W 122°30'0 0.0
2017-Dec-14 04:59N 47°18' W 122°30'0 0.2
2017-Dec-14 04:29N 47°18' W 122°30'0 0.1
2017-Dec-14 03:59N 47°18' W 122°30'0 0.1
2017-Dec-14 03:29N 47°18' W 122°30'0 0.1
2017-Dec-14 02:59N 47°18' W 122°30'0 0.4
2017-Dec-14 02:29N 47°18' W 122°30'0 0.1
2017-Dec-14 01:59N 47°18' W 122°30'0 0.1
2017-Dec-14 01:29N 47°18' W 122°30'0 0.1
2017-Dec-14 00:59N 47°18' W 122°30'0 0.0
2017-Dec-14 00:29N 47°18' W 122°30'0 0.0
2017-Dec-13 23:59N 47°18' W 122°30'0 0.1
2017-Dec-13 23:29N 47°18' W 122°30'0 0.0
2017-Dec-13 22:59N 47°18' W 122°30'0 0.0
2017-Dec-13 22:29N 47°19' W 122°30'0 0.0
2017-Dec-13 21:59N 47°19' W 122°30'0 0.0
2017-Dec-13 21:29N 47°18' W 122°30'0 0.1
2017-Dec-13 20:59N 47°18' W 122°30'0 0.0
2017-Dec-13 20:29N 47°18' W 122°30'0 0.0
2017-Dec-13 19:59N 47°18' W 122°30'0 0.1
2017-Dec-13 19:29N 47°18' W 122°30'0 0.1
2017-Dec-13 18:59N 47°18' W 122°30'0 0.0
2017-Dec-13 18:29N 47°19' W 122°30'0 0.1
2017-Dec-13 17:59N 47°19' W 122°30'0 0.0
2017-Dec-13 17:29N 47°19' W 122°30'0 0.0
2017-Dec-13 16:59N 47°19' W 122°30'0 0.0
2017-Dec-13 16:29N 47°18' W 122°30'0 0.0
2017-Dec-13 15:59N 47°19' W 122°30'0 0.1
2017-Dec-13 15:29N 47°18' W 122°30'0 0.0
2017-Dec-13 14:56N 47°18' W 122°30'0 0.2
2017-Dec-13 14:29N 47°18' W 122°30'0 0.0
2017-Dec-13 13:59N 47°19' W 122°30'0 0.0
2017-Dec-13 13:29N 47°19' W 122°30'0 0.0
2017-Dec-13 12:59N 47°19' W 122°30'0 0.1
2017-Dec-13 12:29N 47°19' W 122°30'0 0.1
2017-Dec-13 11:59N 47°19' W 122°30'0 0.1
2017-Dec-13 11:29N 47°19' W 122°30'0 0.1
2017-Dec-13 10:59N 47°19' W 122°30'0 0.1
2017-Dec-13 10:29N 47°19' W 122°30'0 0.1
2017-Dec-13 09:59N 47°19' W 122°30'0 0.0
2017-Dec-13 09:29N 47°19' W 122°30'0 0.1
2017-Dec-13 08:59N 47°18' W 122°30'0 0.0
2017-Dec-13 08:29N 47°18' W 122°30'0 0.0
2017-Dec-13 07:59N 47°18' W 122°30'0 0.0
2017-Dec-13 07:29N 47°18' W 122°30'0 0.2
2017-Dec-13 06:59N 47°19' W 122°30'0 0.1
2017-Dec-13 06:29N 47°18' W 122°30'0 0.0
2017-Dec-13 05:59N 47°18' W 122°30'0 0.0
2017-Dec-13 05:29N 47°18' W 122°30'0 0.2
2017-Dec-13 04:59N 47°18' W 122°30'0 0.2
2017-Dec-13 04:26N 47°18' W 122°30'0 0.0
2017-Dec-13 03:59N 47°18' W 122°30'0 0.1
2017-Dec-13 03:29N 47°18' W 122°30'0 0.1
2017-Dec-13 02:59N 47°18' W 122°30'0 0.0
2017-Dec-13 02:29N 47°18' W 122°30'0 0.4
2017-Dec-13 01:59N 47°18' W 122°30'0 0.0
2017-Dec-13 01:29N 47°18' W 122°30'0 0.2
2017-Dec-13 00:59N 47°19' W 122°30'0 0.1
2017-Dec-13 00:29N 47°19' W 122°30'0 0.0
2017-Dec-12 23:59N 47°19' W 122°30'0 0.1
2017-Dec-12 23:29N 47°19' W 122°30'0 0.1
2017-Dec-12 22:59N 47°19' W 122°30'0 0.1
2017-Dec-12 22:29N 47°19' W 122°30'0 0.2
2017-Dec-12 21:59N 47°19' W 122°30'0 0.0
2017-Dec-12 21:29N 47°19' W 122°30'0 0.0
2017-Dec-12 20:59N 47°19' W 122°30'0 0.1
2017-Dec-12 20:29N 47°19' W 122°30'0 0.0
2017-Dec-12 19:59N 47°19' W 122°30'0 0.0
2017-Dec-12 19:29N 47°19' W 122°30'0 0.1
2017-Dec-12 18:59N 47°18' W 122°30'0 0.1
2017-Dec-12 18:29N 47°19' W 122°30'1 1.1
2017-Dec-12 18:00N 47°19' W 122°30'4 8.5
2017-Dec-12 17:30N 47°21' W 122°25'510.3
2017-Dec-12 17:00N 47°27' W 122°24'713.6
2017-Dec-12 16:30N 47°33' W 122°27'713.4
2017-Dec-12 16:00N 47°40' W 122°28'713.2
2017-Dec-12 15:30N 47°46' W 122°27'713.5
2017-Dec-12 15:00N 47°53' W 122°29'612.3
2017-Dec-12 14:30N 47°58' W 122°35'1012.1
2017-Dec-12 13:42N 48°07' W 122°40'412.0
2017-Dec-12 13:24N 48°09' W 122°44'511.8
2017-Dec-12 13:00N 48°11' W 122°51'612.0
2017-Dec-12 12:29N 48°12' W 122°60'612.4
2017-Dec-12 12:00N 48°12' W 123°09'612.1
2017-Dec-12 11:30N 48°11' W 123°18'510.1
2017-Dec-12 11:00N 48°10' W 123°25'4 7.8
2017-Dec-12 10:30N 48°12' W 123°30'4 8.9
2017-Dec-12 10:00N 48°13' W 123°37'712.5
2017-Dec-12 09:29N 48°13' W 123°47'613.2
2017-Dec-12 09:00N 48°14' W 123°56'613.0
2017-Dec-12 08:30N 48°16' W 124°05'612.8
2017-Dec-12 08:00N 48°19' W 124°13'713.5
2017-Dec-12 07:30N 48°22' W 124°23'713.2
2017-Dec-12 07:00N 48°25' W 124°32'713.3
2017-Dec-12 06:30N 48°28' W 124°41'612.3
2017-Dec-12 06:00N 48°28' W 124°50'612.3
2017-Dec-12 05:30N 48°28' W 124°59'612.5
2017-Dec-12 05:00N 48°29' W 125°09'612.4
2017-Dec-12 04:30N 48°29' W 125°18'612.2
2017-Dec-12 04:00N 48°29' W 125°27'611.7
2017-Dec-12 03:30N 48°29' W 125°36'611.5
2017-Dec-12 03:00N 48°29' W 125°45'611.6
2017-Dec-12 02:30N 48°29' W 125°53'611.6
2017-Dec-12 01:58N 48°30' W 126°03'611.6
2017-Dec-12 01:29N 48°30' W 126°11'5 9.3
2017-Dec-12 00:55N 48°31' W 126°19'5 8.0
2017-Dec-12 00:21N 48°30' W 126°26'9411.3
2017-Dec-11 16:01N 48°29' W 128°49'111.2
2017-Dec-11 15:57N 48°29' W 128°50'511.2
2017-Dec-11 15:30N 48°29' W 128°57'611.2
2017-Dec-11 15:00N 48°29' W 129°06'611.2
2017-Dec-11 14:30N 48°29' W 129°14'711.1
2017-Dec-11 13:52N 48°29' W 129°25'411.2
2017-Dec-11 13:30N 48°29' W 129°31'611.4
2017-Dec-11 13:00N 48°29' W 129°39'611.5
2017-Dec-11 12:30N 48°29' W 129°48'611.6
2017-Dec-11 12:00N 48°29' W 129°57'611.6
2017-Dec-11 11:30N 48°30' W 130°06'611.2
2017-Dec-11 11:00N 48°30' W 130°14'611.1
2017-Dec-11 10:30N 48°30' W 130°23'611.1
2017-Dec-11 10:00N 48°29' W 130°31'611.2
2017-Dec-11 09:30N 48°29' W 130°39'611.1
2017-Dec-11 09:00N 48°29' W 130°48'511.0
2017-Dec-11 08:30N 48°29' W 130°56'510.9
2017-Dec-11 08:01N 48°29' W 131°04'510.7
2017-Dec-11 07:30N 48°29' W 131°12'510.6
2017-Dec-11 07:00N 48°29' W 131°20'510.6
2017-Dec-11 06:30N 48°29' W 131°28'610.5
2017-Dec-11 05:59N 48°29' W 131°37'510.3
2017-Dec-11 05:30N 48°30' W 131°44'  

Dump ship's entire track history